Time;durP1;ratioP1;P1;durP2;ratioP2;P2;SDS_P1;SDS_P2;PMS_P1;PMS_P2;Temp;Humidity;BMP_temperature;BMP_pressure;BME280_temperature;BME280_humidity;BME280_pressure;Samples;Min_cycle;Max_cycle;Signal;HPM_P1;HPM_P2
2022/05/22 00:01:15;;;;;;;9.05;2.95;;;10.70;89.90;;;;;;4985340;28;20066;-75
2022/05/22 00:03:41;;;;;;;7.75;3.08;;;10.60;90.00;;;;;;4961041;28;20027;-75
2022/05/22 00:06:07;;;;;;;9.43;2.80;;;10.60;90.30;;;;;;4977394;28;20038;-74
2022/05/22 00:08:32;;;;;;;6.82;2.72;;;10.50;90.40;;;;;;4957292;28;20122;-74
2022/05/22 00:10:58;;;;;;;5.47;2.30;;;10.40;90.70;;;;;;4966978;28;20034;-74
2022/05/22 00:13:23;;;;;;;7.50;2.90;;;10.40;90.90;;;;;;4960092;28;20034;-74
2022/05/22 00:18:33;;;;;;;10.68;2.85;;;10.30;91.20;;;;;;4973029;28;20512;-74
2022/05/22 00:20:59;;;;;;;9.52;2.97;;;10.20;91.40;;;;;;4953289;28;20039;-74
2022/05/22 00:23:24;;;;;;;6.15;2.63;;;10.20;91.40;;;;;;4956464;28;20066;-74
2022/05/22 00:25:50;;;;;;;8.45;2.78;;;10.20;91.40;;;;;;4959138;28;20030;-74
2022/05/22 00:28:15;;;;;;;9.23;2.90;;;10.30;91.60;;;;;;4962666;28;20019;-74
2022/05/22 00:30:41;;;;;;;11.95;3.05;;;10.30;91.50;;;;;;4971965;28;20049;-74
2022/05/22 00:33:07;;;;;;;8.35;2.88;;;10.30;91.30;;;;;;4964043;28;20458;-74
2022/05/22 00:35:32;;;;;;;7.57;2.92;;;10.30;91.10;;;;;;4956735;28;20046;-75
2022/05/22 00:37:58;;;;;;;11.55;3.03;;;10.30;91.00;;;;;;4957243;28;20082;-75
2022/05/22 00:40:24;;;;;;;9.80;2.83;;;10.30;90.90;;;;;;4963737;28;20121;-74
2022/05/22 00:42:50;;;;;;;12.05;2.90;;;10.30;91.00;;;;;;4964453;28;20058;-73
2022/05/22 00:45:16;;;;;;;8.38;2.67;;;10.20;91.10;;;;;;4973713;28;20470;-73
2022/05/22 00:47:41;;;;;;;6.72;2.75;;;10.20;91.30;;;;;;4980440;28;20453;-73
2022/05/22 00:50:07;;;;;;;9.02;2.40;;;10.10;91.30;;;;;;4970704;28;20124;-75
2022/05/22 00:52:41;;;;;;;12.25;2.80;;;10.10;91.30;;;;;;4979399;28;20043;-73
2022/05/22 00:55:16;;;;;;;7.78;2.75;;;10.10;91.40;;;;;;4978314;28;20046;-73
2022/05/22 00:57:53;;;;;;;7.38;2.55;;;10.00;91.50;;;;;;4961258;28;20033;-73
2022/05/22 01:00:23;;;;;;;6.65;2.30;;;10.00;91.60;;;;;;4961248;28;20065;-74
2022/05/22 01:05:35;;;;;;;8.05;2.92;;;9.80;91.80;;;;;;4984972;28;20045;-74
2022/05/22 01:08:01;;;;;;;6.88;2.58;;;9.70;92.00;;;;;;4975172;28;20050;-74
2022/05/22 01:10:37;;;;;;;10.68;2.90;;;9.60;91.90;;;;;;4958558;28;20022;-73
2022/05/22 01:13:03;;;;;;;8.40;3.35;;;9.60;92.10;;;;;;4977990;28;20098;-73
2022/05/22 01:15:29;;;;;;;8.80;3.05;;;9.50;92.40;;;;;;4955678;28;20616;-74
2022/05/22 01:17:54;;;;;;;8.77;2.75;;;9.50;92.50;;;;;;4978875;28;20113;-74
2022/05/22 01:20:20;;;;;;;10.98;3.50;;;9.40;92.70;;;;;;4977678;28;20033;-73
2022/05/22 01:22:46;;;;;;;8.65;3.47;;;9.40;92.90;;;;;;4955569;28;20062;-73
2022/05/22 01:25:12;;;;;;;11.60;3.20;;;9.40;93.10;;;;;;4969951;28;20038;-74
2022/05/22 01:27:38;;;;;;;15.38;3.72;;;9.30;93.20;;;;;;4988810;28;20061;-73
2022/05/22 01:30:10;;;;;;;8.43;3.30;;;9.30;93.20;;;;;;4993515;28;20027;-75
2022/05/22 01:32:37;;;;;;;10.18;3.08;;;9.20;93.20;;;;;;4986426;28;20086;-72
2022/05/22 01:35:04;;;;;;;12.88;4.00;;;9.10;93.20;;;;;;4959888;28;20042;-73
2022/05/22 01:37:30;;;;;;;9.80;2.78;;;9.00;93.10;;;;;;4982026;28;20054;-75
2022/05/22 01:39:55;;;;;;;10.60;3.22;;;9.00;93.30;;;;;;5007469;28;20052;-76
2022/05/22 01:42:21;;;;;;;14.73;3.72;;;8.90;93.30;;;;;;4979255;28;20382;-74
2022/05/22 01:44:47;;;;;;;8.35;3.55;;;8.90;93.30;;;;;;4999823;28;20515;-73
2022/05/22 01:47:12;;;;;;;7.03;3.20;;;8.80;93.10;;;;;;4993407;28;20049;-73
2022/05/22 01:49:38;;;;;;;11.88;3.17;;;8.80;93.20;;;;;;5000963;28;20034;-74
2022/05/22 01:52:04;;;;;;;7.15;3.30;;;8.60;93.10;;;;;;4988738;28;20061;-74
2022/05/22 01:54:30;;;;;;;8.13;3.30;;;8.60;93.10;;;;;;5004929;28;20046;-74
2022/05/22 01:56:55;;;;;;;12.98;3.25;;;8.50;93.30;;;;;;4997513;28;20033;-75
2022/05/22 01:59:22;;;;;;;11.88;3.05;;;8.40;93.30;;;;;;4992965;28;20488;-76
2022/05/22 02:01:48;;;;;;;8.43;3.35;;;8.40;93.30;;;;;;4990850;28;20022;-74
2022/05/22 02:04:13;;;;;;;7.57;3.30;;;8.30;93.40;;;;;;4992699;28;20469;-74
2022/05/22 02:08:19;;;;;;;9.88;3.38;;;8.20;93.40;;;;;;4992498;28;20465;-73
2022/05/22 02:09:24;;;;;;;11.93;4.25;;;8.20;93.70;;;;;;4996342;28;20026;-73
2022/05/22 02:11:50;;;;;;;9.98;4.10;;;8.30;93.90;;;;;;5005847;28;20084;-73
2022/05/22 02:14:17;;;;;;;9.40;4.18;;;8.30;94.20;;;;;;4971027;28;20034;-73
2022/05/22 02:16:42;;;;;;;13.60;3.92;;;8.20;94.40;;;;;;4981631;28;20453;-74
2022/05/22 02:19:10;;;;;;;11.38;4.50;;;8.30;94.70;;;;;;4979519;28;20042;-74
2022/05/22 02:21:35;;;;;;;11.20;4.00;;;8.10;94.60;;;;;;4991478;28;20549;-74
2022/05/22 02:24:01;;;;;;;15.18;4.60;;;8.20;94.90;;;;;;5004427;28;20121;-74
2022/05/22 02:26:26;;;;;;;11.20;4.75;;;8.10;95.00;;;;;;4994684;28;20030;-74
2022/05/22 02:28:52;;;;;;;13.85;4.30;;;8.10;95.00;;;;;;5000403;28;22326;-74
2022/05/22 02:31:17;;;;;;;11.38;4.18;;;8.10;95.20;;;;;;4976555;28;20113;-74
2022/05/22 02:33:43;;;;;;;9.27;4.63;;;8.10;95.30;;;;;;4983081;28;20040;-74
2022/05/22 02:36:13;;;;;;;9.07;4.55;;;8.10;95.30;;;;;;4990372;28;20513;-74
2022/05/22 02:38:39;;;;;;;13.90;4.95;;;8.10;95.50;;;;;;4998590;28;20145;-74
2022/05/22 02:41:20;;;;;;;11.75;4.80;;;8.10;95.30;;;;;;5012164;28;20093;-74
2022/05/22 02:43:46;;;;;;;17.02;4.80;;;8.00;95.40;;;;;;5003581;28;20030;-73
2022/05/22 02:46:14;;;;;;;12.77;4.97;;;7.90;95.30;;;;;;4980266;28;20501;-74
2022/05/22 02:48:39;;;;;;;17.38;4.93;;;7.90;95.50;;;;;;4993219;28;20053;-74
2022/05/22 02:51:06;;;;;;;14.77;4.32;;;7.90;95.50;;;;;;4977717;28;20023;-74
2022/05/22 02:53:33;;;;;;;12.32;4.30;;;7.90;95.50;;;;;;4995344;28;20145;-74
2022/05/22 02:56:16;;;;;;;19.55;5.03;;;7.90;95.60;;;;;;4993040;28;20031;-74
2022/05/22 02:58:42;;;;;;;14.15;4.32;;;8.00;95.70;;;;;;4972969;28;20042;-74
2022/05/22 03:01:08;;;;;;;17.00;5.18;;;8.00;95.80;;;;;;4994324;28;20027;-74
2022/05/22 03:03:34;;;;;;;13.30;5.00;;;8.00;95.80;;;;;;4999034;28;20038;-74
2022/05/22 03:08:45;;;;;;;11.50;5.05;;;7.80;95.70;;;;;;5002568;28;21123;-74
2022/05/22 03:11:10;;;;;;;12.43;4.75;;;7.90;95.90;;;;;;4971512;28;20026;-76
2022/05/22 03:13:36;;;;;;;16.98;5.07;;;8.00;96.00;;;;;;4975421;28;20141;-74
2022/05/22 03:16:02;;;;;;;16.55;5.85;;;8.00;96.00;;;;;;4976923;28;20060;-75
2022/05/22 03:18:27;;;;;;;15.10;5.13;;;8.00;96.00;;;;;;4973399;28;20038;-74
2022/05/22 03:20:53;;;;;;;12.90;5.35;;;8.00;96.00;;;;;;4998173;28;20030;-74
2022/05/22 03:23:18;;;;;;;14.65;5.75;;;8.10;96.10;;;;;;4976714;28;20034;-74
2022/05/22 03:25:47;;;;;;;15.32;5.88;;;8.10;96.10;;;;;;4972955;28;20038;-74
2022/05/22 03:28:13;;;;;;;12.38;5.38;;;8.10;96.10;;;;;;4991492;28;20381;-74
2022/05/22 03:30:39;;;;;;;19.42;5.88;;;8.10;96.00;;;;;;4997427;28;20034;-75
2022/05/22 03:33:05;;;;;;;14.38;5.88;;;8.10;96.10;;;;;;4975805;28;20041;-74
2022/05/22 03:35:30;;;;;;;15.85;5.75;;;8.10;96.10;;;;;;4975391;28;20084;-75
2022/05/22 03:37:56;;;;;;;17.17;5.57;;;8.20;96.10;;;;;;4990143;28;20069;-77
2022/05/22 03:40:22;;;;;;;17.52;5.82;;;8.20;96.10;;;;;;4974283;28;20042;-74
2022/05/22 03:42:47;;;;;;;10.73;5.00;;;8.30;96.10;;;;;;4978312;28;20030;-74
2022/05/22 03:45:13;;;;;;;13.57;5.20;;;8.20;96.10;;;;;;4991997;28;20050;-74
2022/05/22 03:47:39;;;;;;;19.80;6.20;;;8.30;96.20;;;;;;4993673;28;20034;-73
2022/05/22 03:50:11;;;;;;;15.73;5.68;;;8.20;96.20;;;;;;4974429;28;20030;-74
2022/05/22 03:52:40;;;;;;;10.80;4.95;;;8.20;96.20;;;;;;4992455;28;20151;-73
2022/05/22 03:55:07;;;;;;;18.50;6.00;;;8.10;96.30;;;;;;4974229;28;20034;-75
2022/05/22 03:57:34;;;;;;;14.18;5.30;;;8.10;96.30;;;;;;4991064;28;20033;-74
2022/05/22 04:00:02;;;;;;;19.35;6.07;;;8.10;96.30;;;;;;4972495;28;20049;-76
2022/05/22 04:02:28;;;;;;;11.00;5.47;;;8.10;96.30;;;;;;4992299;28;20033;-74
2022/05/22 04:04:53;;;;;;;15.90;5.72;;;8.10;96.30;;;;;;5001195;28;20049;-75
2022/05/22 04:07:19;;;;;;;13.30;5.45;;;8.10;96.30;;;;;;4988362;28;20034;-74
2022/05/22 04:09:45;;;;;;;15.30;5.75;;;8.10;96.40;;;;;;4991059;28;20039;-73
2022/05/22 04:12:11;;;;;;;16.83;6.07;;;8.10;96.40;;;;;;4972189;28;20030;-74
2022/05/22 04:14:37;;;;;;;14.30;6.13;;;8.00;96.50;;;;;;4991039;28;20045;-73
2022/05/22 04:17:03;;;;;;;13.43;5.82;;;8.00;96.40;;;;;;4974070;28;20030;-74
2022/05/22 04:19:29;;;;;;;16.75;5.50;;;8.00;96.40;;;;;;5003643;28;20046;-72
2022/05/22 04:21:55;;;;;;;16.83;6.22;;;8.00;96.30;;;;;;4994332;28;20030;-72
2022/05/22 04:27:06;;;;;;;14.60;5.30;;;8.10;96.30;;;;;;4991824;28;20061;-72
2022/05/22 04:29:33;;;;;;;10.20;6.07;;;8.10;96.10;;;;;;4992361;28;20030;-72
2022/05/22 04:31:59;;;;;;;11.43;5.93;;;8.30;96.30;;;;;;4999986;28;20030;-72
2022/05/22 04:34:24;;;;;;;15.32;5.45;;;8.40;96.30;;;;;;4991606;28;20479;-72
2022/05/22 04:36:50;;;;;;;16.08;6.32;;;8.40;96.20;;;;;;4992891;28;20043;-72
2022/05/22 04:39:15;;;;;;;21.67;6.07;;;8.50;96.20;;;;;;4972110;28;20391;-72
2022/05/22 04:41:41;;;;;;;14.65;5.53;;;8.60;96.00;;;;;;4977269;28;20022;-72
2022/05/22 04:44:07;;;;;;;22.60;6.13;;;8.70;96.00;;;;;;4967881;28;20041;-72
2022/05/22 04:46:32;;;;;;;16.42;6.88;;;8.70;95.80;;;;;;4976437;28;20030;-72
2022/05/22 04:48:58;;;;;;;13.50;5.72;;;8.80;95.90;;;;;;4985149;28;20053;-72
2022/05/22 04:51:23;;;;;;;11.32;5.53;;;8.80;95.90;;;;;;4957632;28;20027;-72
2022/05/22 04:53:50;;;;;;;17.63;5.43;;;9.00;95.80;;;;;;4975406;28;20446;-72
2022/05/22 04:56:15;;;;;;;16.15;6.00;;;9.00;95.80;;;;;;4976895;28;20042;-72
2022/05/22 04:58:41;;;;;;;11.88;5.30;;;8.90;95.40;;;;;;4984215;28;20030;-72
2022/05/22 05:01:08;;;;;;;11.73;5.07;;;9.10;95.60;;;;;;4965270;28;20121;-72
2022/05/22 05:03:35;;;;;;;14.15;5.03;;;9.10;95.30;;;;;;4978629;28;20038;-72
2022/05/22 05:06:01;;;;;;;8.23;5.00;;;9.20;95.20;;;;;;4984563;28;20035;-72
2022/05/22 05:08:29;;;;;;;7.95;4.35;;;9.20;95.10;;;;;;4964119;28;20038;-73
2022/05/22 05:10:56;;;;;;;9.65;4.03;;;9.30;94.90;;;;;;4979556;28;20031;-72
2022/05/22 05:13:21;;;;;;;8.85;4.22;;;9.30;94.90;;;;;;4972647;28;20027;-72
2022/05/22 05:15:57;;;;;;;13.90;4.95;;;9.30;94.80;;;;;;4963645;28;20046;-73
2022/05/22 05:18:23;;;;;;;11.75;4.55;;;9.40;94.90;;;;;;4957988;28;20030;-73
2022/05/22 05:20:49;;;;;;;12.30;5.13;;;9.50;94.80;;;;;;4988561;28;20038;-72
2022/05/22 05:23:14;;;;;;;9.48;4.28;;;9.60;94.80;;;;;;4974428;28;20038;-72
2022/05/22 05:25:40;;;;;;;11.90;4.28;;;9.60;94.50;;;;;;4962754;28;20038;-72
2022/05/22 05:28:06;;;;;;;9.25;4.38;;;9.60;94.50;;;;;;4977216;28;20034;-73
2022/05/22 05:30:31;;;;;;;12.45;4.03;;;9.80;94.60;;;;;;4965150;28;20035;-73
2022/05/22 05:32:57;;;;;;;9.80;4.75;;;9.80;94.40;;;;;;4961205;28;20031;-73
2022/05/22 05:35:23;;;;;;;10.65;4.22;;;9.90;94.30;;;;;;4966632;28;20126;-73
2022/05/22 05:37:48;;;;;;;8.90;3.88;;;9.80;94.20;;;;;;4975860;28;20478;-73
2022/05/22 05:40:14;;;;;;;10.55;4.18;;;9.80;94.30;;;;;;4978931;28;20086;-74
2022/05/22 05:42:40;;;;;;;14.05;4.70;;;9.80;94.30;;;;;;4977227;28;20380;-73
2022/05/22 05:45:07;;;;;;;11.18;4.35;;;9.80;94.30;;;;;;4966236;28;20034;-73
2022/05/22 05:47:33;;;;;;;14.02;4.00;;;9.80;94.40;;;;;;4976144;28;20097;-73
2022/05/22 05:49:58;;;;;;;10.88;4.80;;;9.90;94.30;;;;;;4981133;28;20058;-73
2022/05/22 05:52:24;;;;;;;8.70;4.50;;;10.00;94.50;;;;;;4955691;28;20102;-73
2022/05/22 05:54:49;;;;;;;13.02;4.35;;;10.10;94.40;;;;;;4975914;28;20066;-73
2022/05/22 05:57:16;;;;;;;12.73;5.43;;;10.40;94.30;;;;;;4975422;28;20038;-74
2022/05/22 05:59:42;;;;;;;12.70;4.70;;;10.50;94.10;;;;;;4982566;28;20521;-73
2022/05/22 06:02:14;;;;;;;10.88;5.03;;;10.70;94.00;;;;;;4969594;28;20030;-73
2022/05/22 06:04:41;;;;;;;10.77;4.97;;;10.60;93.70;;;;;;4979182;28;20030;-73
2022/05/22 06:07:07;;;;;;;12.25;4.68;;;10.50;93.60;;;;;;4968069;28;20031;-73
2022/05/22 06:09:33;;;;;;;13.02;4.05;;;10.60;93.60;;;;;;4980904;28;20031;-73
2022/05/22 06:11:59;;;;;;;11.13;4.28;;;10.60;93.60;;;;;;4971284;28;20458;-73
2022/05/22 06:14:25;;;;;;;14.57;5.53;;;10.70;93.70;;;;;;4985892;28;20034;-73
2022/05/22 06:16:50;;;;;;;14.13;4.70;;;10.90;93.80;;;;;;4979936;28;20054;-73
2022/05/22 06:19:53;;;;;;;11.57;4.63;;;11.00;93.60;;;;;;4977499;28;20034;-73
2022/05/22 06:22:02;;;;;;;10.82;4.85;;;11.20;93.40;;;;;;4982067;28;20031;-74
2022/05/22 06:24:27;;;;;;;12.82;4.82;;;11.40;92.70;;;;;;4980532;28;20045;-73
2022/05/22 06:26:53;;;;;;;11.63;4.32;;;11.50;92.40;;;;;;4972527;28;20109;-73
2022/05/22 06:29:18;;;;;;;8.50;4.45;;;11.70;92.10;;;;;;4971403;28;20393;-73
2022/05/22 06:31:44;;;;;;;10.85;4.32;;;12.00;92.30;;;;;;4975329;28;20023;-74
2022/05/22 06:34:10;;;;;;;10.75;4.05;;;12.00;91.50;;;;;;4969071;28;20090;-73
2022/05/22 06:36:35;;;;;;;8.77;3.70;;;12.10;90.60;;;;;;4973473;28;20062;-73
2022/05/22 06:41:45;;;;;;;7.32;3.72;;;12.30;89.90;;;;;;4987017;28;20065;-73
2022/05/22 06:44:10;;;;;;;12.48;3.65;;;12.50;88.60;;;;;;4991791;28;20074;-74
2022/05/22 06:46:35;;;;;;;15.57;3.85;;;12.60;88.70;;;;;;4988577;28;20033;-73
2022/05/22 06:49:02;;;;;;;6.43;2.78;;;13.00;88.10;;;;;;4988140;28;20107;-73
2022/05/22 06:51:28;;;;;;;8.63;3.05;;;12.90;86.60;;;;;;4995266;28;20109;-73
2022/05/22 06:53:53;;;;;;;8.63;2.97;;;13.00;86.20;;;;;;4971486;28;20125;-73
2022/05/22 06:56:19;;;;;;;15.07;3.38;;;13.10;85.60;;;;;;4971432;28;20448;-73
2022/05/22 06:58:45;;;;;;;5.68;2.63;;;13.10;85.40;;;;;;4991365;28;20064;-73
2022/05/22 07:01:13;;;;;;;7.75;2.40;;;13.20;85.30;;;;;;4990106;28;20034;-73
2022/05/22 07:03:38;;;;;;;11.90;2.92;;;13.50;84.00;;;;;;4997906;28;20034;-73
2022/05/22 07:06:04;;;;;;;10.35;3.10;;;13.50;83.50;;;;;;5000868;28;20131;-73
2022/05/22 07:08:29;;;;;;;5.25;1.60;;;13.70;83.50;;;;;;4984336;28;20737;-73
2022/05/22 07:13:39;;;;;;;8.02;2.17;;;14.00;80.60;;;;;;4982811;28;20041;-73
2022/05/22 07:16:05;;;;;;;5.68;2.30;;;13.60;80.70;;;;;;4985760;28;20042;-73
2022/05/22 07:18:31;;;;;;;7.30;1.90;;;13.50;81.80;;;;;;4988146;28;20038;-72
2022/05/22 07:20:57;;;;;;;9.77;2.50;;;13.50;81.70;;;;;;4986856;28;20030;-72
2022/05/22 07:23:23;;;;;;;6.55;1.70;;;13.50;81.80;;;;;;4970551;28;20034;-72
2022/05/22 07:25:50;;;;;;;4.82;1.60;;;13.40;82.00;;;;;;4996691;28;20069;-72
2022/05/22 07:28:15;;;;;;;6.05;1.88;;;13.30;81.60;;;;;;4999040;28;20026;-72
2022/05/22 07:30:41;;;;;;;5.20;1.60;;;13.30;81.30;;;;;;4988568;28;20435;-72
2022/05/22 07:33:06;;;;;;;8.35;1.63;;;13.30;81.40;;;;;;4985342;28;20044;-72
2022/05/22 07:35:32;;;;;;;6.60;1.85;;;13.40;80.90;;;;;;4995916;28;20125;-72
2022/05/22 07:37:59;;;;;;;7.45;1.75;;;13.50;80.10;;;;;;4991707;28;20050;-72
2022/05/22 07:40:24;;;;;;;5.20;1.58;;;13.40;80.60;;;;;;5000491;28;20026;-72
2022/05/22 07:42:50;;;;;;;4.70;1.50;;;14.00;79.80;;;;;;4993245;28;20034;-72
2022/05/22 07:45:16;;;;;;;6.28;1.48;;;14.40;78.00;;;;;;4984526;28;20049;-76
2022/05/22 07:47:42;;;;;;;6.03;1.40;;;15.30;76.20;;;;;;4991151;28;20456;-77
2022/05/22 07:50:18;;;;;;;7.65;2.13;;;15.70;74.80;;;;;;4984514;28;20397;-76
2022/05/22 07:52:47;;;;;;;2.95;1.35;;;15.10;73.20;;;;;;4988869;28;20033;-76
2022/05/22 07:55:17;;;;;;;4.10;1.33;;;14.60;75.10;;;;;;4992258;28;20042;-76
2022/05/22 07:57:44;;;;;;;5.47;2.00;;;14.50;75.80;;;;;;5000440;28;20381;-75
2022/05/22 08:00:11;;;;;;;6.05;2.17;;;14.30;76.90;;;;;;4971085;28;20034;-76
2022/05/22 08:02:37;;;;;;;4.53;1.50;;;14.00;77.70;;;;;;4994471;28;20026;-76
2022/05/22 08:05:04;;;;;;;5.30;1.75;;;13.90;78.30;;;;;;4992861;28;20030;-76
2022/05/22 08:07:30;;;;;;;8.05;2.20;;;14.50;77.30;;;;;;4987311;28;20031;-76
2022/05/22 08:09:56;;;;;;;6.05;1.95;;;15.00;77.30;;;;;;4991499;28;20054;-76
2022/05/22 08:12:21;;;;;;;4.75;1.67;;;15.50;74.90;;;;;;4988197;28;20034;-76
2022/05/22 08:14:48;;;;;;;5.35;1.88;;;15.70;70.30;;;;;;5006594;28;20033;-76
2022/05/22 08:17:15;;;;;;;4.53;1.65;;;16.40;70.20;;;;;;4975611;28;20065;-75
2022/05/22 08:19:41;;;;;;;6.00;1.38;;;16.80;67.40;;;;;;5001080;28;20053;-74
2022/05/22 08:22:06;;;;;;;3.03;1.20;;;16.10;66.90;;;;;;5003848;28;20422;-75
2022/05/22 08:24:32;;;;;;;4.63;1.35;;;15.80;69.60;;;;;;4999574;28;20046;-75
2022/05/22 08:26:57;;;;;;;5.07;1.52;;;15.40;70.10;;;;;;5004830;28;20125;-75
2022/05/22 08:29:23;;;;;;;5.07;2.10;;;15.30;71.10;;;;;;4992583;28;20025;-74
2022/05/22 08:31:48;;;;;;;8.80;1.85;;;14.90;71.50;;;;;;4992547;28;20401;-74
2022/05/22 08:34:14;;;;;;;6.60;1.98;;;14.70;72.20;;;;;;4995699;28;20045;-75
2022/05/22 08:36:40;;;;;;;4.15;1.55;;;14.60;72.80;;;;;;4991777;28;20038;-74
2022/05/22 08:39:06;;;;;;;5.47;1.75;;;14.80;74.10;;;;;;4987921;28;20415;-75
2022/05/22 08:41:37;;;;;;;6.32;1.73;;;15.40;72.60;;;;;;4990739;28;20045;-72
2022/05/22 08:44:10;;;;;;;4.30;1.80;;;16.00;71.70;;;;;;4989391;28;20036;-72
2022/05/22 08:46:58;;;;;;;5.53;1.80;;;16.30;67.30;;;;;;4992921;28;20038;-72
2022/05/22 08:49:39;;;;;;;6.93;1.92;;;16.80;69.10;;;;;;4979338;28;20030;-75
2022/05/22 08:52:26;;;;;;;2.25;1.00;;;16.60;68.10;;;;;;4981489;28;20034;-73
2022/05/22 08:55:14;;;;;;;3.83;1.00;;;16.00;65.60;;;;;;5002057;28;20582;-73
2022/05/22 09:00:31;;;;;;;3.80;1.02;;;16.90;62.60;;;;;;4992598;28;20418;-74
2022/05/22 09:03:00;;;;;;;2.03;0.90;;;17.90;59.80;;;;;;4981568;28;20042;-75
2022/05/22 09:05:29;;;;;;;3.50;1.02;;;18.00;59.60;;;;;;4984659;28;20055;-74
2022/05/22 09:08:06;;;;;;;4.50;0.93;;;17.60;62.10;;;;;;4990170;28;20034;-74
2022/05/22 09:11:00;;;;;;;3.15;0.80;;;16.90;62.60;;;;;;4988229;28;20027;-75
2022/05/22 09:13:29;;;;;;;4.55;1.20;;;16.40;61.90;;;;;;4994540;28;20026;-75
2022/05/22 09:16:10;;;;;;;8.93;1.35;;;16.00;62.80;;;;;;4993355;28;20063;-75
2022/05/22 09:18:52;;;;;;;3.58;0.80;;;15.80;64.60;;;;;;4980103;28;20027;-75
2022/05/22 09:21:29;;;;;;;3.92;1.20;;;15.60;67.30;;;;;;4995545;28;20088;-74
2022/05/22 09:23:59;;;;;;;1.73;0.90;;;15.90;68.90;;;;;;4987699;28;20481;-75
2022/05/22 09:26:54;;;;;;;6.18;1.35;;;16.70;68.60;;;;;;4988869;28;20088;-74
2022/05/22 09:29:39;;;;;;;2.90;0.88;;;17.40;66.20;;;;;;4996463;28;20089;-73
2022/05/22 09:32:16;;;;;;;5.05;0.93;;;18.00;62.90;;;;;;4989950;28;20027;-74
2022/05/22 09:35:10;;;;;;;3.17;0.82;;;18.10;59.10;;;;;;4990312;28;20473;-75
2022/05/22 09:37:53;;;;;;;2.85;0.98;;;18.90;60.30;;;;;;4990027;28;20069;-75
2022/05/22 09:40:44;;;;;;;3.78;1.27;;;19.00;57.20;;;;;;4992727;28;20037;-75
2022/05/22 09:43:15;;;;;;;6.03;1.10;;;17.90;59.10;;;;;;4995435;28;20031;-75
2022/05/22 09:45:47;;;;;;;3.38;1.00;;;17.40;59.90;;;;;;5000420;28;20045;-70
2022/05/22 09:48:31;;;;;;;2.38;0.73;;;16.80;61.60;;;;;;4993677;28;20038;-69
2022/05/22 09:51:05;;;;;;;4.80;1.15;;;16.60;62.20;;;;;;4990023;28;20085;-70
2022/05/22 09:53:46;;;;;;;3.42;0.82;;;16.40;60.90;;;;;;4993299;28;20092;-70
2022/05/22 09:56:46;;;;;;;5.30;1.20;;;16.30;62.50;;;;;;4989812;28;20065;-69
2022/05/22 09:59:21;;;;;;;2.53;0.98;;;16.40;63.00;;;;;;4990656;28;20026;-69
2022/05/22 10:01:52;;;;;;;3.63;0.70;;;16.90;59.30;;;;;;4993219;28;20460;-69
2022/05/22 10:04:32;;;;;;;1.92;0.68;;;18.00;58.60;;;;;;4987407;28;20034;-70
2022/05/22 10:07:21;;;;;;;2.25;0.68;;;18.60;54.70;;;;;;4992338;28;20038;-70
2022/05/22 10:09:58;;;;;;;2.45;0.90;;;18.40;56.40;;;;;;4991879;28;20875;-69
2022/05/22 10:13:05;;;;;;;2.67;0.80;;;18.10;56.10;;;;;;4992513;28;20470;-70
2022/05/22 10:15:51;;;;;;;3.67;0.73;;;17.70;56.30;;;;;;4991070;28;20493;-69
2022/05/22 10:18:38;;;;;;;3.15;0.68;;;17.00;57.80;;;;;;4993778;28;20559;-69
2022/05/22 10:21:18;;;;;;;3.33;0.70;;;16.90;56.50;;;;;;4998488;28;20045;-69
2022/05/22 10:23:56;;;;;;;1.40;0.40;;;17.70;54.00;;;;;;4977815;28;20030;-70
2022/05/22 10:26:57;;;;;;;2.85;0.68;;;18.40;54.40;;;;;;4992101;28;20117;-70
2022/05/22 10:29:32;;;;;;;3.00;0.63;;;19.10;52.10;;;;;;4991471;28;20077;-70
2022/05/22 10:32:10;;;;;;;3.88;0.63;;;19.10;51.40;;;;;;4989902;28;20541;-70
2022/05/22 10:34:55;;;;;;;1.15;0.55;;;19.70;51.10;;;;;;4980644;28;20031;-70
2022/05/22 10:37:43;;;;;;;2.95;0.70;;;19.50;46.30;;;;;;4989876;28;20054;-70
2022/05/22 10:40:15;;;;;;;1.85;0.50;;;19.80;48.10;;;;;;4987663;28;20038;-70
2022/05/22 10:42:45;;;;;;;1.88;0.70;;;20.60;45.90;;;;;;4990994;28;20026;-70
2022/05/22 10:45:36;;;;;;;3.60;0.70;;;20.10;46.80;;;;;;4992575;28;20044;-70
2022/05/22 10:48:19;;;;;;;;;;;19.80;47.90;;;;;;4993107;28;20039;-70
2022/05/22 10:50:54;;;;;;;3.13;0.75;;;20.40;48.40;;;;;;4986313;28;19913;-70
2022/05/22 10:53:45;;;;;;;4.40;0.65;;;20.30;47.70;;;;;;4991437;28;20035;-70
2022/05/22 10:56:13;;;;;;;1.00;0.45;;;20.10;47.90;;;;;;4983011;28;20480;-70
2022/05/22 10:58:59;;;;;;;2.60;0.50;;;20.30;48.30;;;;;;4990984;28;20038;-70
2022/05/22 11:01:30;;;;;;;2.20;0.70;;;19.00;50.10;;;;;;4996585;28;20377;-70
2022/05/22 11:04:17;;;;;;;3.63;0.73;;;19.10;51.20;;;;;;4991292;28;20034;-70
2022/05/22 11:06:52;;;;;;;1.08;0.47;;;19.50;49.90;;;;;;5003350;28;20393;-70
2022/05/22 11:09:27;;;;;;;4.85;1.00;;;20.10;49.60;;;;;;4976637;28;20358;-70
2022/05/22 11:12:14;;;;;;;1.45;0.52;;;20.10;47.60;;;;;;4995405;28;20036;-70
2022/05/22 11:14:40;;;;;;;2.78;0.70;;;20.60;46.90;;;;;;4991051;28;20034;-70
2022/05/22 11:17:13;;;;;;;2.30;0.60;;;20.60;45.20;;;;;;4990232;28;20035;-70
2022/05/22 11:19:41;;;;;;;2.70;0.57;;;20.80;45.80;;;;;;4991269;28;20042;-70
2022/05/22 11:22:27;;;;;;;2.72;0.70;;;20.80;44.50;;;;;;4996300;28;20101;-70
2022/05/22 11:25:17;;;;;;;3.22;0.75;;;20.40;46.80;;;;;;4995194;28;20062;-70
2022/05/22 11:27:52;;;;;;;2.85;0.70;;;19.80;48.30;;;;;;4985311;28;20074;-70
2022/05/22 11:30:42;;;;;;;1.95;0.60;;;19.40;48.60;;;;;;4979556;28;20034;-70
2022/05/22 11:33:32;;;;;;;2.17;0.80;;;19.10;48.60;;;;;;4995087;28;20045;-70
2022/05/22 11:36:23;;;;;;;1.85;0.73;;;19.30;48.60;;;;;;4993926;28;20117;-70
2022/05/22 11:39:24;;;;;;;5.97;0.90;;;19.30;48.30;;;;;;4979147;28;20058;-70
2022/05/22 11:41:53;;;;;;;;;;;19.50;50.10;;;;;;4958946;28;20039;-70
2022/05/22 11:44:51;;;;;;;2.10;0.57;;;19.90;51.70;;;;;;4975364;28;20386;-70
2022/05/22 11:47:34;;;;;;;4.97;0.70;;;19.80;46.30;;;;;;4932040;28;20051;-70
2022/05/22 11:50:09;;;;;;;4.70;0.90;;;19.50;47.10;;;;;;4971925;28;20026;-70
2022/05/22 11:53:02;;;;;;;3.00;0.90;;;19.50;47.40;;;;;;4973893;28;20477;-70
2022/05/22 11:55:46;;;;;;;2.15;0.63;;;18.90;49.00;;;;;;4974452;28;20490;-70
2022/05/22 11:58:27;;;;;;;1.77;0.68;;;19.00;48.70;;;;;;4978867;28;20035;-71
2022/05/22 12:01:23;;;;;;;3.22;0.75;;;19.10;48.00;;;;;;4977221;28;20117;-70
2022/05/22 12:04:06;;;;;;;1.65;0.57;;;19.30;48.70;;;;;;4953248;28;20050;-70
2022/05/22 12:06:47;;;;;;;3.05;0.95;;;19.10;49.50;;;;;;4969615;28;20066;-70
2022/05/22 12:09:40;;;;;;;5.03;0.95;;;19.00;50.00;;;;;;4983197;28;20049;-72
2022/05/22 12:12:30;;;;;;;1.85;0.60;;;18.80;49.90;;;;;;4972967;28;20034;-72
2022/05/22 12:15:03;;;;;;;3.60;1.00;;;19.30;49.80;;;;;;4976590;28;20098;-72
2022/05/22 12:17:55;;;;;;;4.80;0.63;;;19.60;48.60;;;;;;4978901;28;20081;-72
2022/05/22 12:20:35;;;;;;;4.65;1.00;;;20.10;46.90;;;;;;4972044;28;20058;-72
2022/05/22 12:23:13;;;;;;;4.18;1.10;;;20.30;46.90;;;;;;4973623;28;20150;-72
2022/05/22 12:25:41;;;;;;;2.15;0.80;;;19.80;46.70;;;;;;4974090;28;20042;-72
2022/05/22 12:28:29;;;;;;;3.50;0.80;;;19.70;47.50;;;;;;4978035;28;20055;-72
2022/05/22 12:30:57;;;;;;;2.33;0.80;;;19.50;50.50;;;;;;4977638;28;20030;-72
2022/05/22 12:33:27;;;;;;;4.35;0.88;;;19.30;48.50;;;;;;4976570;28;20035;-74
2022/05/22 12:35:54;;;;;;;2.90;0.90;;;19.30;50.60;;;;;;4980528;28;20129;-76
2022/05/22 12:38:19;;;;;;;4.63;1.00;;;20.10;50.60;;;;;;4988217;28;20046;-75
2022/05/22 12:40:58;;;;;;;3.70;0.85;;;20.80;47.50;;;;;;5006126;28;20470;-74
2022/05/22 12:43:25;;;;;;;3.28;0.63;;;22.10;44.00;;;;;;4993408;28;20528;-75
2022/05/22 12:45:54;;;;;;;7.00;0.73;;;22.70;44.00;;;;;;4997293;28;20684;-75
2022/05/22 12:48:34;;;;;;;3.67;0.90;;;23.00;43.20;;;;;;4997633;28;20501;-75
2022/05/22 12:51:14;;;;;;;5.85;2.05;;;22.70;41.90;;;;;;4998098;28;20046;-75
2022/05/22 12:53:46;;;;;;;3.42;0.90;;;22.70;41.70;;;;;;4993955;28;20446;-74
2022/05/22 12:56:29;;;;;;;1.77;0.80;;;23.70;38.90;;;;;;4989867;28;20072;-74
2022/05/22 12:59:00;;;;;;;1.92;0.82;;;23.40;39.30;;;;;;4998349;28;20161;-74
2022/05/22 13:01:34;;;;;;;5.45;0.82;;;23.70;40.00;;;;;;4975522;28;20030;-74
2022/05/22 13:04:06;;;;;;;4.32;0.93;;;24.10;38.60;;;;;;4990641;28;20618;-73
2022/05/22 13:06:36;;;;;;;1.17;0.52;;;23.90;38.40;;;;;;4999823;28;20038;-76
2022/05/22 13:09:07;;;;;;;4.25;0.60;;;22.80;39.90;;;;;;4996032;28;20031;-74
2022/05/22 13:11:49;;;;;;;5.00;1.20;;;21.40;42.40;;;;;;4996026;28;20392;-73
2022/05/22 13:14:27;;;;;;;3.38;0.93;;;20.70;43.90;;;;;;4995836;28;20369;-74
2022/05/22 13:16:53;;;;;;;4.05;0.82;;;20.20;46.80;;;;;;4993049;28;20030;-74
2022/05/22 13:19:25;;;;;;;4.50;1.05;;;20.70;48.20;;;;;;4993216;28;20046;-76
2022/05/22 13:21:52;;;;;;;4.82;1.02;;;21.50;45.10;;;;;;4998796;28;20022;-75
2022/05/22 13:24:17;;;;;;;7.22;1.33;;;22.30;43.80;;;;;;4994946;28;20030;-76
2022/05/22 13:27:05;;;;;;;3.40;0.80;;;23.30;40.90;;;;;;4993306;28;20022;-77